Terminal Aerodrome Forecast
Issued by NWS Albany, NY

Home | Current Version | Previous Version | Text Only | Print | Product List | Glossary On
Versions: 1 2 3 4 5 6 7 8 9 10 11 12 13 14
000
FTUS41 KALY 261408 AAA
TAFGFL
TAF AMD
KGFL 261408Z 2614/2712 35006KT 6SM -RA BR SCT008 OVC020
      TEMPO 2614/2616 3SM -RA BR BKN008
     FM262100 32007KT P6SM VCSH OVC015
     FM270000 32005KT P6SM OVC020
     FM270600 VRB03KT P6SM BKN020 OVC030=

USA.gov is the U.S. government's official web portal to all federal, state and local government web resources and services.